createdAt,value
2023-04-15T03:59:05.498Z,43.59
2023-04-15T04:00:05.485Z,43.59
2023-04-15T04:01:05.446Z,43.49
2023-04-15T04:02:05.541Z,43.59
2023-04-15T04:03:05.600Z,43.68
2023-04-15T04:04:05.504Z,43.59
2023-04-15T04:05:05.428Z,44.07
2023-04-15T04:06:05.451Z,44.07
2023-04-15T04:07:05.390Z,44.07
2023-04-15T04:08:05.394Z,43.97
2023-04-15T04:09:05.388Z,44.17
2023-04-15T04:10:05.400Z,44.07
2023-04-15T04:11:05.401Z,44.17
2023-04-15T04:12:05.360Z,44.17
2023-04-15T04:13:05.398Z,44.26
2023-04-15T04:14:05.361Z,44.17
2023-04-15T04:15:05.381Z,44.17
2023-04-15T04:16:05.422Z,44.45
2023-04-15T04:17:05.449Z,44.48
2023-04-15T04:18:05.371Z,44.57
2023-04-15T04:19:05.342Z,44.48
2023-04-15T04:20:05.355Z,44.48
2023-04-15T04:21:05.325Z,44.48
2023-04-15T04:22:05.315Z,44.48
2023-04-15T04:23:05.351Z,44.28
2023-04-15T04:24:05.328Z,44.48
2023-04-15T04:25:05.330Z,44.28
2023-04-15T04:26:05.313Z,44.48
2023-04-15T04:27:05.315Z,44.48
2023-04-15T04:28:05.314Z,44.48
2023-04-15T04:29:05.328Z,44.48
2023-04-15T04:30:05.286Z,44.48
2023-04-15T04:31:05.305Z,44.38
2023-04-15T04:32:05.323Z,44.48
2023-04-15T04:33:05.347Z,44.28
2023-04-15T04:34:05.269Z,44.38
2023-04-15T04:35:05.275Z,44.28
2023-04-15T04:36:05.264Z,44.38
2023-04-15T04:37:05.265Z,44.48
2023-04-15T04:38:05.265Z,43.99
2023-04-15T04:39:05.248Z,44.28
2023-04-15T04:40:05.238Z,44.19
2023-04-15T04:41:05.241Z,44.19
2023-04-15T04:42:05.246Z,44.28
2023-04-15T04:43:05.243Z,44.28
2023-04-15T04:44:05.245Z,44.28
2023-04-15T04:45:05.226Z,44.09
2023-04-15T04:46:05.247Z,44.19
2023-04-15T04:47:05.238Z,44.19
2023-04-15T04:48:05.276Z,44.28
2023-04-15T04:49:05.278Z,44.28
2023-04-15T04:50:05.203Z,44.19
2023-04-15T04:51:05.204Z,44.11
2023-04-15T04:52:05.210Z,44.11
2023-04-15T04:53:05.216Z,44.21
2023-04-15T04:54:05.189Z,44.21
2023-04-15T04:55:05.179Z,44.19
2023-04-15T04:56:05.194Z,44.21
2023-04-15T04:57:05.199Z,43.82
2023-04-15T04:58:05.178Z,44.31
2023-04-15T04:59:05.202Z,43.92
2023-04-15T05:00:05.190Z,44.21
2023-04-15T05:01:05.258Z,44.02
2023-04-15T05:02:05.265Z,44.11
2023-04-15T05:03:05.365Z,44.02
2023-04-15T05:04:05.675Z,44.11
2023-04-15T05:05:05.155Z,44.02
2023-04-15T05:06:05.152Z,44.11
2023-04-15T05:07:05.150Z,44.11
2023-04-15T05:08:05.141Z,44.02
2023-04-15T05:09:05.142Z,44.21
2023-04-15T05:10:05.134Z,44.21
2023-04-15T05:11:05.133Z,43.92
2023-04-15T05:12:05.124Z,43.54
2023-04-15T05:13:05.112Z,43.92
2023-04-15T05:14:05.167Z,44.11
2023-04-15T05:15:05.114Z,43.73
2023-04-15T05:16:05.148Z,44.02
2023-04-15T05:17:05.124Z,43.82
2023-04-15T05:18:05.149Z,43.92
2023-04-15T05:19:05.156Z,43.92
2023-04-15T05:20:05.095Z,43.63
2023-04-15T05:21:05.095Z,43.82
2023-04-15T05:22:05.104Z,44.02
2023-04-15T05:23:05.091Z,44.02
2023-04-15T05:24:05.089Z,43.63
2023-04-15T05:25:05.123Z,43.73
2023-04-15T05:26:05.108Z,43.63
2023-04-15T05:27:05.061Z,43.73
2023-04-15T05:28:05.062Z,43.73
2023-04-15T05:29:05.065Z,43.73
2023-04-15T05:30:05.062Z,43.73
2023-04-15T05:31:05.087Z,43.73
2023-04-15T05:32:05.055Z,43.54
2023-04-15T05:33:05.067Z,43.73
2023-04-15T05:34:05.049Z,43.54
2023-04-15T05:35:05.078Z,43.63
2023-04-15T05:36:05.041Z,43.63
2023-04-15T05:37:05.049Z,43.73
2023-04-15T05:38:05.036Z,43.54
2023-04-15T05:39:05.020Z,43.65
2023-04-15T05:40:05.028Z,43.75
2023-04-15T05:41:05.021Z,43.85
2023-04-15T05:42:05.024Z,43.94
2023-04-15T05:43:05.039Z,43.75
2023-04-15T05:44:05.005Z,43.65
2023-04-15T05:45:05.029Z,43.55
2023-04-15T05:46:05.024Z,43.55
2023-04-15T05:47:05.004Z,43.85
2023-04-15T05:48:05.028Z,43.94
2023-04-15T05:49:04.991Z,43.85
2023-04-15T05:50:04.991Z,43.75
2023-04-15T05:51:04.993Z,43.75
2023-04-15T05:52:04.980Z,43.65
2023-04-15T05:53:05.006Z,43.46
2023-04-15T05:54:04.999Z,43.37
2023-04-15T05:55:05.021Z,43.37
2023-04-15T05:56:04.979Z,43.55
2023-04-15T05:57:04.964Z,43.85
2023-04-15T05:58:04.980Z,43.65
2023-04-15T05:59:04.964Z,43.46
2023-04-15T06:00:04.958Z,43.55
2023-04-15T06:01:04.963Z,43.46
2023-04-15T06:02:05.002Z,43.46
2023-04-15T06:03:05.030Z,43.17
2023-04-15T06:04:05.012Z,43.55
2023-04-15T06:05:04.999Z,43.65
2023-04-15T06:06:04.959Z,43.27
2023-04-15T06:07:04.956Z,43.27
2023-04-15T06:08:04.917Z,43.55
2023-04-15T06:09:04.939Z,43.55
2023-04-15T06:10:04.924Z,43.46
2023-04-15T06:11:04.910Z,43.46
2023-04-15T06:12:04.915Z,43.37
2023-04-15T06:13:04.928Z,43.27
2023-04-15T06:14:04.912Z,43.27
2023-04-15T06:15:04.921Z,43.27
2023-04-15T06:16:04.980Z,43.37
2023-04-15T06:17:04.909Z,43.37
2023-04-15T06:18:04.906Z,43.37
2023-04-15T06:19:04.891Z,43.37
2023-04-15T06:20:04.919Z,43.46
2023-04-15T06:21:04.880Z,43.37
2023-04-15T06:22:04.892Z,43.27
2023-04-15T06:23:04.897Z,43.17
2023-04-15T06:24:04.899Z,43.37
2023-04-15T06:25:04.907Z,43.37
2023-04-15T06:26:04.886Z,43.27
2023-04-15T06:27:04.877Z,43.37
2023-04-15T06:28:04.874Z,43.27
2023-04-15T06:29:04.870Z,43.19
2023-04-15T06:30:04.843Z,43.27
2023-04-15T06:31:04.880Z,43.29
2023-04-15T06:32:04.845Z,43.38
2023-04-15T06:33:04.836Z,43.19
2023-04-15T06:34:04.861Z,43.29
2023-04-15T06:35:04.894Z,43.48
2023-04-15T06:36:04.860Z,43.19
2023-04-15T06:37:06.302Z,43.19
2023-04-15T06:38:04.845Z,43.38
2023-04-15T06:39:04.890Z,43.38
2023-04-15T06:40:04.826Z,43.19
2023-04-15T06:41:04.807Z,43.38
2023-04-15T06:42:04.812Z,43.38
2023-04-15T06:43:04.813Z,43.38
2023-04-15T06:44:04.821Z,43.48
2023-04-15T06:45:04.804Z,43.19
2023-04-15T06:46:04.837Z,43.29
2023-04-15T06:47:04.833Z,43.58
2023-04-15T06:48:04.791Z,43.48
2023-04-15T06:49:04.789Z,43.38
2023-04-15T06:50:04.798Z,43.19
2023-04-15T06:51:04.792Z,43.38
2023-04-15T06:52:04.777Z,43.19
2023-04-15T06:53:04.773Z,43.67
2023-04-15T06:54:04.816Z,43.67
2023-04-15T06:55:04.817Z,43.58
2023-04-15T06:56:04.778Z,43.38
2023-04-15T06:57:04.769Z,43.38
2023-04-15T06:58:04.877Z,43.58
2023-04-15T06:59:04.770Z,43.67
2023-04-15T07:00:04.844Z,43.48
2023-04-15T07:01:04.820Z,43.58
2023-04-15T07:02:04.812Z,43.29
2023-04-15T07:03:04.766Z,43.29
2023-04-15T07:04:04.790Z,43.10
2023-04-15T07:05:04.726Z,43.10
2023-04-15T07:06:04.746Z,43.38
2023-04-15T07:07:04.735Z,43.38
2023-04-15T07:08:04.764Z,43.19
2023-04-15T07:09:05.087Z,43.58
2023-04-15T07:10:04.773Z,43.29
2023-04-15T07:11:04.776Z,43.00
2023-04-15T07:12:04.726Z,43.19
2023-04-15T07:15:37.234Z,43.29
2023-04-15T07:18:09.755Z,43.60
2023-04-15T07:19:09.802Z,43.19
2023-04-15T07:20:09.771Z,43.58
2023-04-15T07:21:09.760Z,43.29
2023-04-15T07:22:09.717Z,43.38
2023-04-15T07:23:09.715Z,43.19
2023-04-15T07:24:09.719Z,43.29
2023-04-15T07:25:09.708Z,43.31
2023-04-15T07:26:09.734Z,43.41
2023-04-15T07:27:09.719Z,43.12
2023-04-15T07:28:09.697Z,43.50
2023-04-15T07:29:09.701Z,43.19
2023-04-15T07:30:09.725Z,43.10
2023-04-15T07:31:09.737Z,43.48
2023-04-15T07:32:09.737Z,43.12
2023-04-15T07:33:09.686Z,43.19
2023-04-15T07:34:09.701Z,43.41
2023-04-15T07:35:09.730Z,43.58
2023-04-15T07:36:09.668Z,43.60
2023-04-15T07:37:09.670Z,43.60
2023-04-15T07:38:09.682Z,43.21
2023-04-15T07:39:09.669Z,43.60
2023-04-15T07:40:09.680Z,43.50
2023-04-15T07:41:09.714Z,43.12
2023-04-15T07:42:09.752Z,43.60
2023-04-15T07:43:09.674Z,43.21
2023-04-15T07:44:09.658Z,43.21
2023-04-15T07:45:09.710Z,43.12
2023-04-15T07:46:09.666Z,43.50
2023-04-15T07:47:09.693Z,43.21
2023-04-15T07:48:09.635Z,43.50
2023-04-15T07:49:09.653Z,43.21
2023-04-15T07:50:09.676Z,43.21
2023-04-15T07:51:09.635Z,43.41
2023-04-15T07:52:09.634Z,43.60
2023-04-15T07:53:09.620Z,43.12
2023-04-15T07:54:09.646Z,43.41
2023-04-15T07:55:09.635Z,43.41
2023-04-15T07:56:09.611Z,43.41
2023-04-15T07:57:09.630Z,43.41
2023-04-15T07:58:09.627Z,43.31
2023-04-15T07:59:09.640Z,43.31
2023-04-15T08:00:09.637Z,43.50
2023-04-15T08:01:09.610Z,43.21
2023-04-15T08:02:09.705Z,43.50
2023-04-15T08:03:10.031Z,43.50
2023-04-15T08:04:09.764Z,43.41
2023-04-15T08:05:09.668Z,43.41
2023-04-15T08:06:09.600Z,43.41
2023-04-15T08:07:09.595Z,43.31
2023-04-15T08:08:09.581Z,43.31
2023-04-15T08:09:09.580Z,43.41
2023-04-15T08:10:09.582Z,43.31
2023-04-15T08:11:09.590Z,43.31
2023-04-15T08:12:09.577Z,43.41
2023-04-15T08:13:09.621Z,43.41
2023-04-15T08:14:09.584Z,43.31
2023-04-15T08:15:09.561Z,43.21
2023-04-15T08:16:09.637Z,43.31
2023-04-15T08:17:09.620Z,43.31
2023-04-15T08:18:09.547Z,43.41
2023-04-15T08:19:09.565Z,43.50
2023-04-15T08:20:09.550Z,43.41
2023-04-15T08:21:09.550Z,43.50
2023-04-15T08:22:10.442Z,43.41
2023-04-15T08:23:09.538Z,43.50
2023-04-15T08:24:09.563Z,43.41
2023-04-15T08:25:09.521Z,43.50
2023-04-15T08:26:09.531Z,43.21
2023-04-15T08:27:09.527Z,43.41
2023-04-15T08:28:09.513Z,43.21
2023-04-15T08:29:09.545Z,43.31
2023-04-15T08:30:09.522Z,43.50
2023-04-15T08:31:09.618Z,43.31
2023-04-15T08:32:09.561Z,43.21
2023-04-15T08:33:09.511Z,43.41
2023-04-15T08:34:30.577Z,43.31
2023-04-15T08:35:09.526Z,43.50
2023-04-15T08:36:09.494Z,43.60
2023-04-15T08:37:10.842Z,43.31
2023-04-15T08:38:09.498Z,43.60
2023-04-15T08:39:09.481Z,43.50
2023-04-15T08:40:09.530Z,43.70
2023-04-15T08:41:09.478Z,43.41
2023-04-15T08:42:09.501Z,43.60
2023-04-15T08:43:09.518Z,43.31
2023-04-15T08:44:09.518Z,43.50
2023-04-15T08:45:09.515Z,43.60
2023-04-15T08:46:09.503Z,43.31
2023-04-15T08:47:09.568Z,43.41
2023-04-15T08:48:09.460Z,43.60
2023-04-15T08:49:09.461Z,43.50
2023-04-15T08:50:09.458Z,43.60
2023-04-15T08:51:09.465Z,43.60
2023-04-15T08:52:09.451Z,43.31
2023-04-15T08:53:09.445Z,43.60
2023-04-15T08:54:09.470Z,43.70
2023-04-15T08:55:09.469Z,43.41
2023-04-15T08:56:09.476Z,43.60
2023-04-15T08:57:09.486Z,43.41
2023-04-15T08:58:09.434Z,43.50
2023-04-15T08:59:09.437Z,43.41
2023-04-15T09:00:09.466Z,43.41
2023-04-15T09:01:09.470Z,43.81
2023-04-15T09:02:09.509Z,43.43
2023-04-15T09:03:09.584Z,43.60
2023-04-15T09:04:09.467Z,43.52
2023-04-15T09:05:09.439Z,43.50
2023-04-15T09:06:09.475Z,43.62
2023-04-15T09:07:09.418Z,43.41
2023-04-15T09:08:09.463Z,43.50
2023-04-15T09:09:09.408Z,43.60
2023-04-15T09:10:09.403Z,43.62
2023-04-15T09:11:09.419Z,43.70
2023-04-15T09:12:09.407Z,43.70
2023-04-15T09:13:09.392Z,43.98
2023-04-15T09:14:09.380Z,43.31
2023-04-15T09:15:09.392Z,43.31
2023-04-15T09:16:09.444Z,43.43
2023-04-15T09:17:09.396Z,43.91
2023-04-15T09:18:09.403Z,44.10
2023-04-15T09:19:09.417Z,43.33
2023-04-15T09:20:09.381Z,43.98
2023-04-15T09:21:09.407Z,43.43
2023-04-15T09:22:09.377Z,43.79
2023-04-15T09:23:09.362Z,44.01
2023-04-15T09:24:09.367Z,43.89
2023-04-15T09:25:09.360Z,43.91
2023-04-15T09:26:09.351Z,43.91
2023-04-15T09:27:09.356Z,43.81
2023-04-15T09:28:09.381Z,43.81
2023-04-15T09:29:09.402Z,43.81
2023-04-15T09:30:09.357Z,43.72
2023-04-15T09:31:09.403Z,44.01
2023-04-15T09:32:09.342Z,44.01
2023-04-15T09:33:09.343Z,43.72
2023-04-15T09:34:09.352Z,43.91
2023-04-15T09:35:09.327Z,43.72
2023-04-15T09:36:09.322Z,43.72
2023-04-15T09:37:09.353Z,44.01
2023-04-15T09:38:09.338Z,43.72
2023-04-15T09:39:09.339Z,43.91
2023-04-15T09:40:09.325Z,43.91
2023-04-15T09:41:09.326Z,43.91
2023-04-15T09:42:09.315Z,43.72
2023-04-15T09:43:09.313Z,43.81
2023-04-15T09:44:09.308Z,43.62
2023-04-15T09:45:09.319Z,43.81
2023-04-15T09:46:09.358Z,43.91
2023-04-15T09:47:09.343Z,43.72
2023-04-15T09:48:09.372Z,43.72
2023-04-15T09:49:09.321Z,43.72
2023-04-15T09:50:09.321Z,43.81
2023-04-15T09:51:09.292Z,43.81
2023-04-15T09:52:09.277Z,43.91
2023-04-15T09:53:09.271Z,43.81
2023-04-15T09:54:09.299Z,43.81
2023-04-15T09:55:09.272Z,43.81
2023-04-15T09:56:09.281Z,43.72
2023-04-15T09:57:09.290Z,43.72
2023-04-15T09:58:09.276Z,43.81
2023-04-15T09:59:09.272Z,43.81
2023-04-15T10:00:09.260Z,43.72
2023-04-15T10:01:09.528Z,43.72
2023-04-15T10:02:09.437Z,43.72
2023-04-15T10:13:31.431Z,43.52
2023-04-15T10:14:31.362Z,43.72
2023-04-15T10:15:31.422Z,43.52
2023-04-15T10:16:31.334Z,43.52
2023-04-15T10:17:31.869Z,43.62
2023-04-15T10:18:31.336Z,43.91
2023-04-15T10:19:31.334Z,43.81
2023-04-15T10:20:31.317Z,43.91
2023-04-15T10:21:31.315Z,43.62
2023-04-15T10:22:31.329Z,44.01
2023-04-15T10:23:31.306Z,43.91
2023-04-15T10:24:31.320Z,43.81
2023-04-15T10:25:31.297Z,43.72
2023-04-15T10:26:31.298Z,43.81
2023-04-15T10:27:31.300Z,43.81
2023-04-15T10:28:31.322Z,43.81
2023-04-15T10:29:31.322Z,44.01
2023-04-15T10:30:31.285Z,43.81
2023-04-15T10:31:31.361Z,43.79
2023-04-15T10:32:31.325Z,44.20
2023-04-15T10:33:31.279Z,44.29
2023-04-15T10:34:32.116Z,44.29
2023-04-15T10:35:31.274Z,44.29
2023-04-15T10:36:31.264Z,44.20
2023-04-15T10:37:31.271Z,44.10
2023-04-15T10:38:31.297Z,44.20
2023-04-15T10:39:31.259Z,44.01
2023-04-15T10:40:31.263Z,44.20
2023-04-15T10:41:31.312Z,44.10
2023-04-15T10:42:31.250Z,44.20
2023-04-15T10:43:31.280Z,44.10
2023-04-15T10:44:31.256Z,43.98
2023-04-15T10:45:31.387Z,44.01
2023-04-15T10:46:31.272Z,44.01
2023-04-15T10:47:31.253Z,44.39
2023-04-15T10:48:31.238Z,44.01
2023-04-15T10:49:31.250Z,44.29
2023-04-15T10:50:31.256Z,44.29
2023-04-15T10:51:31.221Z,44.29
2023-04-15T10:52:31.238Z,44.29
2023-04-15T10:53:31.227Z,44.10
2023-04-15T10:54:31.256Z,44.20
2023-04-15T10:55:31.220Z,44.20
2023-04-15T10:56:31.208Z,44.10
2023-04-15T10:57:31.199Z,44.29
2023-04-15T10:58:31.204Z,44.39
2023-04-15T10:59:31.212Z,44.20
2023-04-15T11:00:31.197Z,44.29
2023-04-15T11:01:31.324Z,44.29
2023-04-15T11:02:31.397Z,44.29
2023-04-15T11:03:31.289Z,44.37
2023-04-15T11:04:31.242Z,44.39
2023-04-15T11:05:31.197Z,44.39
2023-04-15T11:06:31.201Z,44.39
2023-04-15T11:07:31.173Z,44.01
2023-04-15T11:08:31.164Z,44.20
2023-04-15T11:09:31.166Z,44.39
2023-04-15T11:10:31.200Z,44.20
2023-04-15T11:11:31.187Z,44.49
2023-04-15T11:12:31.172Z,44.39
2023-04-15T11:13:31.185Z,44.29
2023-04-15T11:14:31.152Z,44.29
2023-04-15T11:15:31.166Z,44.29
2023-04-15T11:16:31.226Z,44.29
2023-04-15T11:17:31.292Z,44.49
2023-04-15T11:18:31.155Z,44.39
2023-04-15T11:19:31.147Z,44.29
2023-04-15T11:20:31.148Z,44.01
2023-04-15T11:21:31.139Z,44.29
2023-04-15T11:22:31.124Z,44.49
2023-04-15T11:23:31.159Z,44.39
2023-04-15T11:24:31.134Z,44.29
2023-04-15T11:25:31.160Z,44.49
2023-04-15T11:26:31.143Z,44.59
2023-04-15T11:27:31.150Z,44.59
2023-04-15T11:28:31.124Z,44.49
2023-04-15T11:29:31.109Z,44.49
2023-04-15T11:30:31.119Z,44.59
2023-04-15T11:31:31.177Z,44.49
2023-04-15T11:32:31.175Z,44.59
2023-04-15T11:33:31.132Z,44.49
2023-04-15T11:34:31.100Z,44.39
2023-04-15T11:35:31.107Z,44.59
2023-04-15T11:36:31.118Z,44.49
2023-04-15T11:37:31.108Z,44.39
2023-04-15T11:38:31.099Z,44.49
2023-04-15T11:39:31.095Z,44.49
2023-04-15T11:40:31.094Z,44.29
2023-04-15T11:41:31.107Z,44.68
2023-04-15T11:42:42.765Z,44.29
2023-04-15T11:43:31.085Z,44.78
2023-04-15T11:44:31.111Z,44.56
2023-04-15T11:45:31.117Z,44.78
2023-04-15T11:46:31.127Z,44.68
2023-04-15T11:47:31.151Z,44.59
2023-04-15T11:48:31.068Z,44.66
2023-04-15T11:49:31.101Z,44.29
2023-04-15T11:50:31.101Z,44.59
2023-04-15T11:51:31.060Z,44.56
2023-04-15T11:52:31.059Z,44.56
2023-04-15T11:53:31.072Z,44.39
2023-04-15T11:54:31.053Z,44.18
2023-04-15T11:55:31.077Z,44.56
2023-04-15T11:56:31.043Z,44.46
2023-04-15T11:57:31.038Z,44.56
2023-04-15T11:58:31.049Z,44.68
2023-04-15T11:59:44.433Z,44.66
2023-04-15T12:00:31.063Z,44.49
2023-04-15T12:01:31.023Z,44.20
2023-04-15T12:02:31.200Z,44.27
2023-04-15T12:03:31.254Z,44.76
2023-04-15T12:04:31.135Z,44.66
2023-04-15T12:05:31.134Z,44.76
2023-04-15T12:06:31.010Z,44.76
2023-04-15T12:07:31.006Z,44.66
2023-04-15T12:08:31.037Z,44.66
2023-04-15T12:09:32.425Z,44.56
2023-04-15T12:10:31.004Z,44.56
2023-04-15T12:11:31.023Z,44.66
2023-04-15T12:12:31.039Z,44.66
2023-04-15T12:13:30.989Z,44.27
2023-04-15T12:14:31.029Z,44.66
2023-04-15T12:15:31.045Z,44.66
2023-04-15T12:16:30.987Z,44.76
2023-04-15T12:17:31.020Z,44.56
2023-04-15T12:18:30.970Z,44.66
2023-04-15T12:19:31.004Z,44.66
2023-04-15T12:20:30.963Z,44.66
2023-04-15T12:21:31.010Z,44.66
2023-04-15T12:22:30.967Z,44.56
2023-04-15T12:23:30.960Z,44.66
2023-04-15T12:24:30.979Z,44.37
2023-04-15T12:25:30.981Z,44.37
2023-04-15T12:26:30.950Z,44.37
2023-04-15T12:27:30.957Z,44.66
2023-04-15T12:28:30.940Z,44.56
2023-04-15T12:29:30.944Z,44.56
2023-04-15T12:30:30.937Z,44.66
2023-04-15T12:31:31.001Z,44.56
2023-04-15T12:32:30.994Z,44.56
2023-04-15T12:33:30.933Z,44.56
2023-04-15T12:34:30.960Z,44.56
2023-04-15T12:35:30.933Z,44.76
2023-04-15T12:36:30.967Z,44.46
2023-04-15T12:37:30.965Z,44.46
2023-04-15T12:38:30.932Z,44.95
2023-04-15T12:39:30.984Z,44.85
2023-04-15T12:40:30.917Z,44.85
2023-04-15T12:41:30.927Z,44.85
2023-04-15T12:42:30.924Z,44.76
2023-04-15T12:43:30.910Z,44.76
2023-04-15T12:44:30.947Z,44.95
2023-04-15T12:45:30.899Z,45.04
2023-04-15T12:46:31.027Z,45.04
2023-04-15T12:47:30.923Z,44.95
2023-04-15T12:48:30.918Z,45.04
2023-04-15T12:49:30.901Z,45.04
2023-04-15T12:50:30.897Z,45.14
2023-04-15T12:51:30.879Z,44.95
2023-04-15T12:52:30.873Z,45.04
2023-04-15T12:53:30.891Z,45.14
2023-04-15T12:54:30.877Z,45.24
2023-04-15T12:55:30.866Z,44.85
2023-04-15T12:56:30.889Z,45.14
2023-04-15T12:57:30.859Z,45.04
2023-04-15T12:58:30.888Z,44.76
2023-04-15T12:59:30.882Z,45.14
2023-04-15T13:00:30.850Z,45.24
2023-04-15T13:01:30.884Z,45.24
2023-04-15T13:02:31.000Z,45.24
2023-04-15T13:03:30.998Z,45.24
2023-04-15T13:04:31.228Z,44.66
2023-04-15T13:05:30.837Z,45.34
2023-04-15T13:06:30.828Z,45.24
2023-04-15T13:07:30.831Z,44.66
2023-04-15T13:08:30.820Z,45.24
2023-04-15T13:09:30.838Z,44.56
2023-04-15T13:10:30.814Z,45.34
2023-04-15T13:11:30.827Z,45.24
2023-04-15T13:12:30.818Z,44.66
2023-04-15T13:13:30.831Z,45.34
2023-04-15T13:14:30.832Z,44.56
2023-04-15T13:15:30.816Z,44.56
2023-04-15T13:16:30.907Z,45.24
2023-04-15T13:17:30.811Z,45.24
2023-04-15T13:18:30.791Z,45.24
2023-04-15T13:19:30.802Z,45.34
2023-04-15T13:20:30.815Z,45.24
2023-04-15T13:21:30.779Z,45.34
2023-04-15T13:22:30.819Z,45.24
2023-04-15T13:23:30.781Z,44.76
2023-04-15T13:24:30.773Z,45.34
2023-04-15T13:25:30.848Z,44.46
2023-04-15T13:26:30.762Z,45.04
2023-04-15T13:27:30.763Z,45.14
2023-04-15T13:28:30.758Z,45.14
2023-04-15T13:29:30.784Z,45.43
2023-04-15T13:30:30.760Z,45.14
2023-04-15T13:31:30.815Z,44.66
2023-04-15T13:32:30.766Z,45.53
2023-04-15T13:33:30.755Z,45.53
2023-04-15T13:34:30.768Z,45.43
2023-04-15T13:35:30.725Z,45.14
2023-04-15T13:36:30.754Z,45.14
2023-04-15T13:37:30.762Z,44.95
2023-04-15T13:38:30.739Z,45.53
2023-04-15T13:39:30.752Z,44.85
2023-04-15T13:40:30.762Z,44.85
2023-04-15T13:41:30.744Z,45.14
2023-04-15T13:42:30.736Z,45.04
2023-04-15T13:43:30.744Z,44.85
2023-04-15T13:44:30.706Z,45.14
2023-04-15T13:45:30.793Z,45.24
2023-04-15T13:46:30.729Z,45.14
2023-04-15T13:47:30.720Z,45.14
2023-04-15T13:48:30.709Z,44.85
2023-04-15T13:49:30.693Z,45.24
2023-04-15T13:50:30.706Z,45.14
2023-04-15T13:51:30.686Z,45.34
2023-04-15T13:52:30.715Z,44.95
2023-04-15T13:53:37.832Z,45.43
2023-04-15T13:54:37.643Z,45.14
2023-04-15T13:55:30.664Z,45.53
2023-04-15T13:56:32.506Z,45.43
2023-04-15T13:57:30.687Z,45.14
2023-04-15T13:58:30.681Z,45.43
2023-04-15T13:59:30.681Z,45.04
2023-04-15T14:00:30.656Z,45.04
2023-04-15T14:01:30.728Z,45.14
2023-04-15T14:02:30.772Z,45.43
2023-04-15T14:03:30.859Z,44.95
2023-04-15T14:04:30.701Z,45.43
2023-04-15T14:05:30.643Z,45.53
2023-04-15T14:06:30.707Z,45.53
2023-04-15T14:07:30.636Z,45.43
2023-04-15T14:08:30.652Z,45.43
2023-04-15T14:09:30.680Z,44.95
2023-04-15T14:10:30.630Z,45.34
2023-04-15T14:11:30.638Z,45.43
2023-04-15T14:12:30.645Z,45.43
2023-04-15T14:13:30.638Z,45.43
2023-04-15T14:14:30.632Z,45.34
2023-04-15T14:15:30.624Z,45.34
2023-04-15T14:16:30.644Z,45.24
2023-04-15T14:17:30.631Z,45.43
2023-04-15T14:18:30.655Z,45.43
2023-04-15T14:19:30.628Z,45.43
2023-04-15T14:20:30.590Z,45.24
2023-04-15T14:21:30.581Z,45.24
2023-04-15T14:22:30.598Z,45.34
2023-04-15T14:23:30.589Z,45.34
2023-04-15T14:24:30.579Z,45.24
2023-04-15T14:25:33.652Z,45.34
2023-04-15T14:26:30.588Z,45.24
2023-04-15T14:27:30.557Z,45.43
2023-04-15T14:28:30.564Z,45.72
2023-04-15T14:29:30.592Z,45.62
2023-04-15T14:30:30.701Z,45.43
2023-04-15T14:31:30.571Z,45.34
2023-04-15T14:32:30.563Z,45.24
2023-04-15T14:33:30.557Z,45.04
2023-04-15T14:34:30.547Z,45.34
2023-04-15T14:35:30.570Z,45.43
2023-04-15T14:36:30.538Z,45.14
2023-04-15T14:37:30.540Z,45.43
2023-04-15T14:38:30.531Z,45.24
2023-04-15T14:39:31.328Z,45.43
2023-04-15T14:40:30.561Z,45.43
2023-04-15T14:41:30.526Z,45.43
2023-04-15T14:42:30.521Z,45.14
2023-04-15T14:43:30.537Z,45.43
2023-04-15T14:45:30.545Z,45.04
2023-04-15T14:46:30.562Z,45.62
2023-04-15T14:47:30.548Z,45.53
2023-04-15T14:48:30.514Z,45.43
2023-04-15T14:49:30.506Z,45.43
2023-04-15T14:50:30.503Z,45.62
2023-04-15T14:51:30.520Z,45.14
2023-04-15T14:52:30.496Z,45.62
2023-04-15T14:53:30.503Z,45.53
2023-04-15T14:54:30.506Z,45.53
2023-04-15T14:55:30.554Z,45.53
2023-04-15T14:56:30.486Z,45.43
2023-04-15T14:57:30.482Z,45.14
2023-04-15T14:58:30.466Z,45.43
2023-04-15T14:59:30.469Z,45.53
2023-04-15T15:00:30.469Z,45.53
2023-04-15T15:01:30.675Z,45.43
2023-04-15T15:03:30.600Z,45.53
2023-04-15T15:04:30.563Z,45.43
2023-04-15T15:05:30.606Z,45.43
2023-04-15T15:06:30.481Z,45.62
2023-04-15T15:07:30.449Z,45.62
2023-04-15T15:08:30.445Z,45.62
2023-04-15T15:09:30.464Z,45.62
2023-04-15T15:10:45.989Z,45.43
2023-04-15T15:11:30.457Z,45.62
2023-04-15T15:12:30.439Z,45.62
2023-04-15T15:13:30.448Z,45.43
2023-04-15T15:14:30.429Z,45.43
2023-04-15T15:15:30.451Z,45.72
2023-04-15T15:16:30.468Z,45.72
2023-04-15T15:17:30.469Z,45.53
2023-04-15T15:18:30.405Z,45.72
2023-04-15T15:19:30.408Z,45.62
2023-04-15T15:20:30.411Z,45.72
2023-04-15T15:21:31.388Z,45.62
2023-04-15T15:22:30.434Z,45.72
2023-04-15T15:23:30.420Z,45.43
2023-04-15T15:24:30.393Z,45.72
2023-04-15T15:25:30.390Z,45.24
2023-04-15T15:26:30.402Z,45.72
2023-04-15T15:27:30.397Z,45.62
2023-04-15T15:28:30.404Z,45.72
2023-04-15T15:29:30.377Z,45.62
2023-04-15T15:30:30.365Z,45.72
2023-04-15T15:31:30.399Z,45.72
2023-04-15T15:32:30.420Z,45.72
2023-04-15T15:33:30.494Z,45.92
2023-04-15T15:34:30.384Z,45.24
2023-04-15T15:35:30.353Z,45.24
2023-04-15T15:36:30.350Z,45.24
2023-04-15T15:37:30.363Z,45.62
2023-04-15T15:38:30.392Z,45.82
2023-04-15T15:39:30.345Z,45.24
2023-04-15T15:40:30.336Z,45.82
2023-04-15T15:41:30.340Z,45.82
2023-04-15T15:42:30.338Z,45.62
2023-04-15T15:43:30.389Z,45.82
2023-04-15T15:44:30.353Z,46.01
2023-04-15T15:45:30.333Z,46.01
2023-04-15T15:46:30.355Z,46.11
2023-04-15T15:47:30.365Z,46.11
2023-04-15T15:48:30.337Z,45.34
2023-04-15T15:49:30.328Z,46.01
2023-04-15T15:50:30.304Z,45.92
2023-04-15T15:51:30.331Z,45.62
2023-04-15T15:52:30.318Z,46.40
2023-04-15T15:53:30.313Z,45.62
2023-04-15T15:54:30.336Z,46.30
2023-04-15T15:55:30.289Z,45.82
2023-04-15T15:56:30.302Z,45.62
2023-04-15T15:57:30.292Z,46.30
2023-04-15T15:58:30.300Z,45.62
2023-04-15T15:59:30.315Z,45.72
2023-04-15T16:00:30.317Z,46.59
2023-04-15T16:12:40.110Z,45.62
2023-04-15T16:13:40.068Z,45.43
2023-04-15T16:14:40.084Z,45.62
2023-04-15T16:15:40.070Z,45.43
2023-04-15T16:16:40.065Z,45.53
2023-04-15T16:17:40.104Z,45.62
2023-04-15T16:18:40.061Z,45.82
2023-04-15T16:19:40.055Z,45.72
2023-04-15T16:20:40.035Z,45.72
2023-04-15T16:21:40.045Z,45.89
2023-04-15T16:22:40.062Z,45.82
2023-04-15T16:23:40.694Z,45.62
2023-04-15T16:24:40.021Z,45.51
2023-04-15T16:25:40.026Z,45.62
2023-04-15T16:26:39.996Z,45.62
2023-04-15T16:27:57.217Z,45.62
2023-04-15T16:28:40.007Z,45.72
2023-04-15T16:29:39.999Z,45.72
2023-04-15T16:30:39.994Z,45.72
2023-04-15T16:31:40.044Z,45.72
2023-04-15T16:32:40.020Z,45.70
2023-04-15T16:33:39.986Z,45.51
2023-04-15T16:34:39.993Z,45.89
2023-04-15T16:35:39.979Z,45.89
2023-04-15T16:36:39.960Z,45.89
2023-04-15T16:37:39.999Z,45.92
2023-04-15T16:38:39.983Z,45.89
2023-04-15T16:39:39.982Z,46.49
2023-04-15T16:40:39.972Z,45.99
2023-04-15T16:41:39.959Z,46.47
2023-04-15T16:42:39.967Z,46.37
2023-04-15T16:43:39.948Z,46.56
2023-04-15T16:44:40.034Z,46.47
2023-04-15T16:45:39.981Z,46.08
2023-04-15T16:46:41.003Z,46.37
2023-04-15T16:47:39.962Z,46.28
2023-04-15T16:48:39.950Z,46.37
2023-04-15T16:49:39.936Z,46.37
2023-04-15T16:50:39.918Z,46.18
2023-04-15T16:51:39.942Z,46.40
2023-04-15T16:52:39.925Z,45.89
2023-04-15T16:53:39.934Z,46.40
2023-04-15T16:54:39.914Z,46.40
2023-04-15T16:55:39.979Z,45.89
2023-04-15T16:56:39.900Z,46.40
2023-04-15T16:57:57.899Z,46.28
2023-04-15T16:58:39.896Z,46.40
2023-04-15T16:59:39.901Z,46.37
2023-04-15T17:00:39.903Z,46.20
2023-04-15T17:01:39.955Z,46.18
2023-04-15T17:02:39.939Z,46.37
2023-04-15T17:03:40.025Z,46.28
2023-04-15T17:04:39.929Z,46.28
2023-04-15T17:05:39.883Z,46.30
2023-04-15T17:06:39.884Z,46.18
2023-04-15T17:07:39.859Z,46.37
2023-04-15T17:08:39.881Z,46.47
2023-04-15T17:09:39.876Z,46.37
2023-04-15T17:10:39.882Z,46.47
2023-04-15T17:11:39.848Z,46.08
2023-04-15T17:12:39.868Z,46.47
2023-04-15T17:13:39.863Z,46.56
2023-04-15T17:14:41.868Z,46.37
2023-04-15T17:15:39.873Z,46.18
2023-04-15T17:16:39.857Z,46.28
2023-04-15T17:17:39.855Z,46.47
2023-04-15T17:18:39.858Z,46.47